Time;durP1;ratioP1;P1;durP2;ratioP2;P2;SDS_P1;SDS_P2;PMS_P1;PMS_P2;Temp;Humidity;BMP_temperature;BMP_pressure;BME280_temperature;BME280_humidity;BME280_pressure;Samples;Min_cycle;Max_cycle;Signal;HPM_P1;HPM_P2
2021/12/28 00:00:23;;;;;;;1999.90;999.90;;;;;;;-3.94;61.89;99812.94;5008046;28;97159;-75
2021/12/28 00:02:51;;;;;;;1999.90;999.90;;;;;;;-3.95;61.81;99805.94;5007380;28;98511;-76
2021/12/28 00:05:20;;;;;;;1999.90;999.90;;;;;;;-3.98;61.86;99810.94;4986524;28;98860;-75
2021/12/28 00:07:48;;;;;;;1999.90;999.90;;;;;;;-4.01;61.64;99805.56;5005144;28;97297;-75
2021/12/28 00:10:20;;;;;;;1999.90;999.90;;;;;;;-4.03;61.51;99807.16;5013689;28;96877;-76
2021/12/28 00:12:49;;;;;;;1999.90;999.90;;;;;;;-4.05;61.98;99808.78;5011208;28;99755;-78
2021/12/28 00:15:32;;;;;;;1999.90;999.90;;;;;;;-4.05;61.76;99803.56;5011829;28;98911;-79
2021/12/28 00:18:05;;;;;;;1999.90;999.90;;;;;;;-4.05;62.11;99802.66;5005594;28;97036;-76
2021/12/28 00:20:35;;;;;;;1999.90;999.90;;;;;;;-4.03;62.22;99798.47;5005256;28;97191;-77
2021/12/28 00:23:08;;;;;;;1999.90;999.90;;;;;;;-4.03;62.04;99804.56;5007529;28;99391;-76
2021/12/28 00:25:36;;;;;;;1999.90;999.90;;;;;;;-4.02;61.92;99808.03;5005786;28;99208;-76
2021/12/28 00:28:04;;;;;;;1999.90;999.90;;;;;;;-3.99;61.91;99806.53;5005384;28;97970;-75
2021/12/28 00:30:32;;;;;;;1999.90;999.90;;;;;;;-3.98;62.06;99799.66;5011020;28;97242;-76
2021/12/28 00:33:03;;;;;;;1999.90;999.90;;;;;;;-4.00;61.91;99796.06;5007615;28;101312;-76
2021/12/28 00:35:33;;;;;;;1999.90;999.90;;;;;;;-4.06;61.78;99795.69;5009492;28;97573;-79
2021/12/28 00:38:02;;;;;;;1999.90;999.90;;;;;;;-4.09;61.91;99795.47;5013284;28;96811;-76
2021/12/28 00:40:30;;;;;;;1999.90;999.90;;;;;;;-4.09;62.04;99791.19;5011775;28;98223;-76
2021/12/28 00:42:59;;;;;;;1999.90;999.90;;;;;;;-4.08;62.22;99790.38;5009078;28;99197;-76
2021/12/28 00:45:27;;;;;;;1999.90;999.90;;;;;;;-4.05;61.68;99800.97;5012891;28;97710;-76
2021/12/28 00:47:55;;;;;;;1999.90;999.90;;;;;;;-4.02;61.49;99798.56;5012738;28;97323;-76
2021/12/28 00:50:26;;;;;;;1999.90;999.90;;;;;;;-4.02;61.77;99795.97;4987375;28;97078;-75
2021/12/28 00:52:56;;;;;;;1999.90;999.90;;;;;;;-3.99;61.77;99796.16;5008287;28;98137;-76
2021/12/28 00:55:25;;;;;;;1999.90;999.90;;;;;;;-3.98;61.54;99792.75;5001736;28;99693;-76
2021/12/28 00:57:53;;;;;;;1999.90;999.90;;;;;;;-3.97;61.88;99786.75;5011042;28;98154;-76
2021/12/28 01:00:24;;;;;;;1999.90;999.90;;;;;;;-3.98;61.74;99777.19;5009262;28;96921;-79
2021/12/28 01:02:53;;;;;;;1999.90;999.90;;;;;;;-3.97;61.80;99776.34;5008348;28;99974;-77
2021/12/28 01:05:22;;;;;;;1999.90;999.90;;;;;;;-3.97;61.63;99780.69;5006415;28;97672;-76
2021/12/28 01:07:53;;;;;;;1999.90;999.90;;;;;;;-4.02;61.74;99777.78;5014894;28;96768;-77
2021/12/28 01:10:23;;;;;;;1999.90;999.90;;;;;;;-4.03;61.79;99778.59;5009850;28;98928;-77
2021/12/28 01:12:52;;;;;;;1999.90;999.90;;;;;;;-4.02;61.85;99782.97;5006464;28;100898;-76
2021/12/28 01:15:21;;;;;;;1999.90;999.90;;;;;;;-4.00;61.64;99788.25;5005485;28;98884;-77
2021/12/28 01:17:48;;;;;;;1999.90;999.90;;;;;;;-4.01;61.44;99782.19;5009053;28;97619;-76
2021/12/28 01:20:17;;;;;;;1999.90;999.90;;;;;;;-4.01;61.50;99784.78;5008054;28;97040;-77
2021/12/28 01:22:46;;;;;;;1999.90;999.90;;;;;;;-4.01;61.50;99782.19;5007106;28;97603;-79
2021/12/28 01:25:16;;;;;;;1999.90;999.90;;;;;;;-4.01;61.62;99784.78;5006875;28;99321;-75
2021/12/28 01:27:44;;;;;;;1999.90;999.90;;;;;;;-4.00;61.92;99776.19;5011448;28;96664;-78
2021/12/28 01:30:13;;;;;;;1999.90;999.90;;;;;;;-3.98;61.74;99769.38;5011573;28;97593;-75
2021/12/28 01:32:41;;;;;;;1999.90;999.90;;;;;;;-3.96;61.65;99774.66;5010630;28;99048;-77
2021/12/28 01:35:11;;;;;;;1999.90;999.90;;;;;;;-3.98;61.68;99765.88;5005257;28;98664;-77
2021/12/28 01:37:40;;;;;;;1999.90;999.90;;;;;;;-4.01;61.91;99758.81;5006767;28;98036;-77
2021/12/28 01:40:11;;;;;;;1999.90;999.90;;;;;;;-4.02;61.81;99762.19;4989821;28;97645;-76
2021/12/28 01:45:35;;;;;;;1999.90;999.90;;;;;;;-3.96;61.62;99748.69;5071030;27;101721;-72
2021/12/28 01:48:04;;;;;;;1999.90;999.90;;;;;;;-3.91;61.75;99745.56;5061307;27;97146;-72
2021/12/28 01:50:33;;;;;;;1999.90;999.90;;;;;;;-3.88;61.65;99739.69;5060668;27;96855;-72
2021/12/28 01:53:01;;;;;;;1999.90;999.90;;;;;;;-3.86;61.16;99738.94;5057486;27;100787;-73
2021/12/28 01:55:29;;;;;;;1999.90;999.90;;;;;;;-3.80;61.47;99734.94;5059472;27;96922;-73
2021/12/28 01:57:57;;;;;;;1999.90;999.90;;;;;;;-3.78;61.45;99728.13;5042476;27;97889;-72
2021/12/28 02:00:26;;;;;;;1999.90;999.90;;;;;;;-3.76;61.42;99726.50;5043967;27;100693;-70
2021/12/28 02:02:55;;;;;;;1999.90;999.90;;;;;;;-3.73;61.54;99734.50;5071691;27;98640;-71
2021/12/28 02:05:23;;;;;;;1999.90;999.90;;;;;;;-3.71;61.72;99732.91;5065566;27;97646;-73
2021/12/28 02:07:51;;;;;;;1999.90;999.90;;;;;;;-3.69;61.70;99724.38;5063084;27;99615;-72
2021/12/28 02:10:18;;;;;;;1999.90;999.90;;;;;;;-3.66;61.36;99726.28;5075366;27;97709;-73
2021/12/28 02:12:46;;;;;;;1999.90;999.90;;;;;;;-3.63;61.65;99718.66;5065762;27;97738;-71
2021/12/28 02:15:15;;;;;;;1999.90;999.90;;;;;;;-3.61;61.16;99727.44;5055866;27;97974;-72
2021/12/28 02:17:43;;;;;;;1999.90;999.90;;;;;;;-3.59;61.17;99718.03;5058068;27;96968;-71
2021/12/28 02:20:15;;;;;;;1999.90;999.90;;;;;;;-3.56;60.81;99713.91;5054983;27;97283;-73
2021/12/28 02:22:43;;;;;;;1999.90;999.90;;;;;;;-3.56;61.14;99702.59;5041467;27;98399;-73
2021/12/28 02:25:12;;;;;;;1999.90;999.90;;;;;;;-3.56;61.78;99707.81;5038477;27;101782;-70
2021/12/28 02:27:41;;;;;;;1999.90;999.90;;;;;;;-3.54;61.36;99706.19;5060810;27;97762;-72
2021/12/28 02:30:12;;;;;;;1999.90;999.90;;;;;;;-3.52;61.72;99699.38;5060727;27;98833;-73
2021/12/28 02:32:41;;;;;;;1999.90;999.90;;;;;;;-3.51;61.07;99696.00;5062736;27;100749;-73
2021/12/28 02:35:14;;;;;;;1999.90;999.90;;;;;;;-3.49;61.20;99678.75;5061579;27;96713;-71
2021/12/28 02:37:41;;;;;;;1999.90;999.90;;;;;;;-3.50;61.65;99679.59;5063204;27;97225;-71
2021/12/28 02:40:12;;;;;;;1999.90;999.90;;;;;;;-3.51;61.09;99672.59;5043952;27;98876;-71
2021/12/28 02:42:40;;;;;;;1999.90;999.90;;;;;;;-3.49;61.46;99673.56;5060254;27;97925;-71
2021/12/28 02:45:12;;;;;;;1999.90;999.90;;;;;;;-3.48;61.57;99668.47;5055208;27;97090;-72
2021/12/28 02:47:42;;;;;;;1999.90;999.90;;;;;;;-3.46;61.32;99672.06;5057517;27;97088;-71
2021/12/28 02:50:15;;;;;;;1999.90;999.90;;;;;;;-3.46;61.15;99673.75;5055296;27;98705;-72
2021/12/28 02:52:43;;;;;;;1999.90;999.90;;;;;;;-3.45;61.12;99680.75;5044249;27;98810;-71
2021/12/28 02:55:13;;;;;;;1999.90;999.90;;;;;;;-3.45;61.22;99678.13;5054852;27;96838;-71
2021/12/28 02:57:47;;;;;;;1999.90;999.90;;;;;;;-3.46;61.39;99687.66;5041624;27;97659;-71
2021/12/28 03:00:15;;;;;;;1999.90;999.90;;;;;;;-3.45;61.43;99681.66;5043070;27;97691;-71
2021/12/28 03:02:43;;;;;;;1999.90;999.90;;;;;;;-3.43;61.37;99684.34;5037219;27;97949;-71
2021/12/28 03:05:11;;;;;;;1999.90;999.90;;;;;;;-3.42;61.48;99680.94;5054911;27;98562;-71
2021/12/28 03:07:41;;;;;;;1999.90;999.90;;;;;;;-3.39;61.09;99681.13;5031417;27;97043;-72
2021/12/28 03:10:08;;;;;;;1999.90;999.90;;;;;;;-3.37;61.62;99683.00;5044016;27;96929;-72
2021/12/28 03:12:37;;;;;;;1999.90;999.90;;;;;;;-3.36;61.21;99682.19;5039102;27;99572;-71
2021/12/28 03:15:06;;;;;;;1999.90;999.90;;;;;;;-3.35;61.41;99683.09;5028723;27;96822;-72
2021/12/28 03:17:34;;;;;;;1999.90;999.90;;;;;;;-3.34;61.28;99680.56;5030908;27;97331;-71
2021/12/28 03:20:02;;;;;;;1999.90;999.90;;;;;;;-3.32;61.46;99685.84;5036233;27;99812;-71
2021/12/28 03:22:30;;;;;;;1999.90;999.90;;;;;;;-3.29;61.18;99691.22;5044553;27;98975;-72
2021/12/28 03:24:59;;;;;;;1999.90;999.90;;;;;;;-3.26;60.99;99679.31;5059198;27;97160;-71
2021/12/28 03:27:26;;;;;;;1999.90;999.90;;;;;;;-3.26;61.45;99676.72;5046501;27;98300;-71
2021/12/28 03:29:54;;;;;;;1999.90;999.90;;;;;;;-3.23;61.03;99665.59;5043810;27;97649;-71
2021/12/28 03:32:22;;;;;;;1999.90;999.90;;;;;;;-3.22;61.46;99664.78;5060410;27;99248;-71
2021/12/28 03:34:50;;;;;;;1999.90;999.90;;;;;;;-3.21;61.46;99662.28;5047389;27;97389;-72
2021/12/28 03:37:18;;;;;;;1999.90;999.90;;;;;;;-3.19;60.99;99646.75;5045618;27;97102;-72
2021/12/28 03:39:45;;;;;;;1999.90;999.90;;;;;;;-3.19;61.57;99647.66;5041197;27;98625;-72
2021/12/28 03:42:15;;;;;;;1999.90;999.90;;;;;;;-3.19;61.05;99645.06;5042391;27;97807;-72
2021/12/28 03:44:42;;;;;;;1999.90;999.90;;;;;;;-3.20;61.10;99637.16;5044065;27;96966;-72
2021/12/28 03:47:10;;;;;;;1999.90;999.90;;;;;;;-3.20;61.52;99639.78;5036617;27;96896;-72
2021/12/28 03:49:38;;;;;;;1999.90;999.90;;;;;;;-3.19;61.64;99641.53;5027389;27;98589;-73
2021/12/28 03:52:06;;;;;;;1999.90;999.90;;;;;;;-3.17;61.29;99632.13;5044169;27;97679;-72
2021/12/28 03:54:35;;;;;;;1999.90;999.90;;;;;;;-3.15;61.55;99633.13;5044886;27;97105;-72
2021/12/28 03:57:03;;;;;;;1999.90;999.90;;;;;;;-3.14;61.29;99630.59;5042893;27;97164;-73
2021/12/28 03:59:33;;;;;;;1999.90;999.90;;;;;;;-3.14;60.81;99629.69;5038387;27;97507;-72
2021/12/28 04:02:00;;;;;;;1999.90;999.90;;;;;;;-3.14;61.71;99620.19;5035633;27;98655;-72
2021/12/28 04:04:28;;;;;;;1999.90;999.90;;;;;;;-3.12;60.98;99621.16;5046401;27;97771;-72
2021/12/28 04:06:56;;;;;;;1999.90;999.90;;;;;;;-3.11;61.56;99615.16;5020939;27;99001;-73
2021/12/28 04:09:46;;;;;;;1999.90;999.90;;;;;;;-3.12;61.15;99615.06;5051993;27;96865;-72
2021/12/28 04:12:12;;;;;;;1999.90;999.90;;;;;;;-3.12;61.61;99613.38;5046273;27;99021;-73
2021/12/28 04:14:41;;;;;;;1999.90;999.90;;;;;;;-3.09;60.93;99610.03;5061547;27;96892;-73
2021/12/28 04:17:09;;;;;;;1999.90;999.90;;;;;;;-3.11;61.28;99609.94;5041369;27;98308;-72
2021/12/28 04:19:36;;;;;;;1999.90;999.90;;;;;;;-3.09;61.73;99612.63;5031805;27;99639;-72
2021/12/28 04:22:05;;;;;;;1999.90;999.90;;;;;;;-3.08;61.23;99606.63;5041527;27;100680;-72
2021/12/28 04:24:33;;;;;;;1999.90;999.90;;;;;;;-3.06;61.08;99610.22;5050906;27;97050;-72
2021/12/28 04:27:23;;;;;;;1999.90;999.90;;;;;;;-3.03;61.21;99603.47;5057487;27;98852;-72
2021/12/28 04:29:52;;;;;;;1999.90;999.90;;;;;;;-3.01;61.04;99595.75;5047492;27;97442;-72
2021/12/28 04:32:20;;;;;;;1999.90;999.90;;;;;;;-3.01;60.86;99590.53;5049142;27;99411;-72
2021/12/28 04:34:50;;;;;;;1999.90;999.90;;;;;;;-3.00;60.92;99595.81;5047085;27;97468;-72
2021/12/28 04:37:19;;;;;;;1999.90;999.90;;;;;;;-2.98;61.23;99593.31;5044470;27;96906;-72
2021/12/28 04:39:47;;;;;;;1999.90;999.90;;;;;;;-2.96;60.71;99586.47;5045618;27;97117;-72
2021/12/28 04:42:15;;;;;;;1999.90;999.90;;;;;;;-2.95;61.48;99577.88;5045243;27;98079;-72
2021/12/28 04:44:43;;;;;;;1999.90;999.90;;;;;;;-2.98;61.33;99572.50;5044752;27;98257;-72
2021/12/28 04:47:12;;;;;;;1999.90;999.90;;;;;;;-3.01;60.86;99567.13;5039226;27;96912;-72
2021/12/28 04:49:40;;;;;;;1999.90;999.90;;;;;;;-3.02;61.71;99565.34;5044410;27;99267;-72
2021/12/28 04:52:07;;;;;;;1999.90;999.90;;;;;;;-3.02;61.80;99573.16;5045034;27;100548;-72
2021/12/28 04:54:36;;;;;;;1999.90;999.90;;;;;;;-3.00;61.76;99563.69;5038475;27;97704;-72
2021/12/28 04:57:05;;;;;;;1999.90;999.90;;;;;;;-3.02;61.90;99567.94;5046797;27;97301;-73
2021/12/28 04:59:33;;;;;;;1999.90;999.90;;;;;;;-3.02;61.89;99557.56;5038636;27;100912;-72
2021/12/28 05:02:01;;;;;;;1999.90;999.90;;;;;;;-3.01;61.32;99554.13;5039552;27;100846;-72
2021/12/28 05:04:30;;;;;;;1999.90;999.90;;;;;;;-2.99;61.08;99569.03;5040161;27;96835;-72
2021/12/28 05:06:58;;;;;;;1999.90;999.90;;;;;;;-2.97;61.34;99563.88;5041369;27;97028;-72
2021/12/28 05:09:26;;;;;;;1999.90;999.90;;;;;;;-2.95;61.12;99563.13;5054987;27;101277;-72
2021/12/28 05:11:54;;;;;;;1999.90;999.90;;;;;;;-2.95;61.45;99560.53;5037577;27;97841;-72
2021/12/28 05:14:21;;;;;;;1999.90;999.90;;;;;;;-2.94;61.76;99559.75;5048999;27;98386;-72
2021/12/28 05:16:49;;;;;;;1999.90;999.90;;;;;;;-2.90;61.93;99556.50;5058634;27;96893;-73
2021/12/28 05:19:17;;;;;;;1999.90;999.90;;;;;;;-2.87;61.68;99559.25;5027828;22;97746;-70
2021/12/28 05:21:47;;;;;;;1999.90;999.90;;;;;;;-2.81;61.33;99563.91;4967333;28;98440;-70
2021/12/28 05:24:15;;;;;;;1999.90;999.90;;;;;;;-2.76;61.33;99562.44;4988166;28;96782;-70
2021/12/28 05:26:43;;;;;;;1999.90;999.90;;;;;;;-2.74;61.16;99552.09;4981223;28;97654;-70
2021/12/28 05:29:11;;;;;;;1999.90;999.90;;;;;;;-2.72;60.85;99550.47;4987298;28;97099;-70
2021/12/28 05:31:38;;;;;;;1999.90;999.90;;;;;;;-2.66;60.79;99546.53;4984402;28;98763;-71
2021/12/28 05:34:07;;;;;;;1999.90;999.90;;;;;;;-2.64;61.23;99554.41;4985022;28;96794;-72
2021/12/28 05:36:36;;;;;;;1999.90;999.90;;;;;;;-2.63;61.26;99541.47;4981045;28;97322;-70
2021/12/28 05:39:06;;;;;;;1999.90;999.90;;;;;;;-2.61;60.98;99538.94;4969697;28;98553;-70
2021/12/28 05:41:33;;;;;;;1999.90;999.90;;;;;;;-2.61;61.23;99539.84;4984692;28;97897;-70
2021/12/28 05:44:01;;;;;;;1999.90;999.90;;;;;;;-2.60;61.37;99531.19;4983347;28;96908;-70
2021/12/28 05:46:29;;;;;;;1999.90;999.90;;;;;;;-2.56;61.12;99527.94;4980145;28;98101;-70
2021/12/28 05:48:57;;;;;;;1999.90;999.90;;;;;;;-2.54;61.58;99528.03;4987538;28;98674;-70
2021/12/28 05:51:25;;;;;;;1999.90;999.90;;;;;;;-2.53;61.30;99524.63;4987845;28;97637;-70
2021/12/28 05:53:53;;;;;;;1999.90;999.90;;;;;;;-2.50;61.25;99527.38;4986058;28;96880;-71
2021/12/28 05:56:22;;;;;;;1999.90;999.90;;;;;;;-2.49;60.82;99527.44;4988072;28;96821;-72
2021/12/28 05:58:51;;;;;;;1999.90;999.90;;;;;;;-2.48;60.74;99521.44;4980850;28;99009;-70
2021/12/28 06:01:19;;;;;;;1999.90;999.90;;;;;;;-2.45;60.67;99513.78;4981492;28;98280;-70
2021/12/28 06:03:47;;;;;;;1999.90;999.90;;;;;;;-2.43;61.05;99517.38;4981211;28;96885;-71
2021/12/28 06:06:15;;;;;;;1999.90;999.90;;;;;;;-2.42;61.04;99513.97;4985558;28;96918;-70
2021/12/28 06:08:43;;;;;;;1999.90;999.90;;;;;;;-2.41;61.02;99512.22;4983345;28;99732;-70
2021/12/28 06:11:13;;;;;;;1999.90;999.90;;;;;;;-2.43;61.88;99512.16;4979598;28;99110;-70
2021/12/28 06:13:42;;;;;;;1999.90;999.90;;;;;;;-2.39;61.36;99508.91;4985787;28;98509;-70
2021/12/28 06:16:11;;;;;;;1999.90;999.90;;;;;;;-2.37;61.51;99503.78;4982576;28;97030;-70
2021/12/28 06:18:39;;;;;;;1999.90;999.90;;;;;;;-2.39;61.68;99506.31;4986234;28;99606;-70
2021/12/28 06:21:06;;;;;;;1999.90;999.90;;;;;;;-2.38;61.54;99492.44;4986050;28;96691;-70
2021/12/28 06:23:34;;;;;;;1999.90;999.90;;;;;;;-2.39;61.74;99493.28;4983536;28;96804;-70
2021/12/28 06:26:02;;;;;;;1999.90;999.90;;;;;;;-2.35;61.28;99494.34;4979777;28;96765;-70
2021/12/28 06:28:30;;;;;;;1999.90;999.90;;;;;;;-2.32;61.37;99486.66;4982784;28;99090;-70
2021/12/28 06:30:59;;;;;;;1999.90;999.90;;;;;;;-2.30;61.66;99479.81;4979358;28;99354;-70
2021/12/28 06:33:27;;;;;;;1999.90;999.90;;;;;;;-2.26;61.68;99481.78;5001851;28;96889;-70
2021/12/28 06:35:55;;;;;;;1999.90;999.90;;;;;;;-2.27;61.66;99486.06;4986493;28;96665;-70
2021/12/28 06:38:23;;;;;;;1999.90;999.90;;;;;;;-2.24;61.07;99486.25;4986130;28;98695;-70
2021/12/28 06:40:51;;;;;;;1999.90;999.90;;;;;;;-2.28;61.34;99480.78;4979451;28;99865;-71
2021/12/28 06:43:19;;;;;;;1999.90;999.90;;;;;;;-2.29;61.47;99484.25;4989702;28;97117;-71
2021/12/28 06:45:47;;;;;;;1999.90;999.90;;;;;;;-2.29;62.18;99486.84;4983152;28;96743;-71
2021/12/28 06:48:16;;;;;;;1999.90;999.90;;;;;;;-2.32;61.41;99487.56;4987250;28;98164;-71
2021/12/28 06:50:43;;;;;;;1999.90;999.90;;;;;;;-2.33;61.45;99485.78;4972143;28;100344;-71
2021/12/28 06:53:11;;;;;;;1999.90;999.90;;;;;;;-2.30;61.31;99485.94;4987643;28;97049;-70
2021/12/28 06:55:39;;;;;;;1999.90;999.90;;;;;;;-2.27;61.79;99490.41;4969625;28;96940;-69
2021/12/28 06:58:07;;;;;;;1999.90;999.90;;;;;;;-2.24;61.33;99488.88;4983963;28;99346;-70
2021/12/28 07:00:37;;;;;;;1999.90;999.90;;;;;;;-2.21;61.70;99485.50;4989648;28;99158;-70
2021/12/28 07:03:05;;;;;;;1999.90;999.90;;;;;;;-2.20;62.00;99496.00;4984404;28;96815;-71
2021/12/28 07:05:35;;;;;;;1999.90;999.90;;;;;;;-2.20;61.17;99498.59;4982350;28;98002;-70
2021/12/28 07:08:03;;;;;;;1999.90;999.90;;;;;;;-2.17;61.85;99492.69;4985786;28;99033;-70
2021/12/28 07:10:31;;;;;;;1999.90;999.90;;;;;;;-2.18;61.19;99499.56;4987851;28;98829;-70
2021/12/28 07:12:58;;;;;;;1999.90;999.90;;;;;;;-2.17;62.02;99493.59;4987004;28;97489;-70
2021/12/28 07:15:26;;;;;;;1999.90;999.90;;;;;;;-2.16;62.10;99489.25;4987981;28;97226;-70
2021/12/28 07:17:54;;;;;;;1999.90;999.90;;;;;;;-2.18;61.43;99491.75;4984007;28;97142;-70
2021/12/28 07:20:21;;;;;;;1999.90;999.90;;;;;;;-2.17;61.83;99496.19;4988041;28;97030;-70
2021/12/28 07:22:51;;;;;;;1999.90;999.90;;;;;;;-2.16;61.25;99495.38;4969790;28;97286;-71
2021/12/28 07:25:19;;;;;;;1999.90;999.90;;;;;;;-2.15;61.31;99502.38;4988284;28;97115;-70
2021/12/28 07:27:47;;;;;;;1999.90;999.90;;;;;;;-2.19;61.89;99496.91;4982228;28;98549;-71
2021/12/28 07:30:14;;;;;;;1999.90;999.90;;;;;;;-2.21;61.76;99496.81;4985218;28;98178;-71
2021/12/28 07:32:42;;;;;;;1999.90;999.90;;;;;;;-2.23;61.74;99495.84;4984620;28;96984;-70
2021/12/28 07:35:11;;;;;;;1999.90;999.90;;;;;;;-2.21;61.61;99486.41;4986694;28;96756;-70
2021/12/28 07:37:39;;;;;;;1999.90;999.90;;;;;;;-2.19;61.76;99487.38;4985767;28;100196;-70
2021/12/28 07:40:11;;;;;;;1999.90;999.90;;;;;;;-2.17;61.54;99482.28;4987729;28;97660;-70
2021/12/28 07:42:39;;;;;;;1999.90;999.90;;;;;;;-2.18;61.65;99478.72;4983224;28;96595;-71
2021/12/28 07:45:09;;;;;;;1999.90;999.90;;;;;;;-2.16;61.50;99484.03;4984882;28;96902;-71
2021/12/28 07:47:37;;;;;;;1999.90;999.90;;;;;;;-2.11;62.04;99487.81;4979961;28;97891;-70
2021/12/28 07:50:07;;;;;;;1999.90;999.90;;;;;;;-2.12;62.41;99489.50;4982653;28;96879;-70
2021/12/28 07:52:35;;;;;;;1999.90;999.90;;;;;;;-2.11;62.04;99490.41;4986938;28;97399;-70
2021/12/28 07:55:05;;;;;;;1999.90;999.90;;;;;;;-2.11;61.90;99488.66;4987638;28;97212;-72
2021/12/28 07:57:35;;;;;;;1999.90;999.90;;;;;;;-2.08;61.68;99487.94;4993512;28;99827;-72
2021/12/28 08:00:04;;;;;;;1999.90;999.90;;;;;;;-2.08;62.35;99475.81;4986757;28;97496;-72
2021/12/28 08:02:38;;;;;;;1999.90;999.90;;;;;;;-2.08;61.97;99473.22;4985467;28;98160;-73
2021/12/28 08:05:07;;;;;;;1999.90;999.90;;;;;;;-2.06;61.84;99471.59;4986121;28;97441;-72
2021/12/28 08:07:35;;;;;;;1999.90;999.90;;;;;;;-2.03;61.57;99487.34;4983391;28;100569;-72
2021/12/28 08:10:04;;;;;;;1999.90;999.90;;;;;;;-2.01;62.02;99475.31;4986021;28;98232;-72
2021/12/28 08:12:32;;;;;;;1999.90;999.90;;;;;;;-1.99;61.50;99473.66;4987440;28;97030;-72
2021/12/28 08:15:02;;;;;;;1999.90;999.90;;;;;;;-1.94;62.10;99479.09;4967558;28;96865;-72
2021/12/28 08:17:30;;;;;;;1999.90;999.90;;;;;;;-1.91;62.21;99481.88;4984344;28;97300;-72
2021/12/28 08:19:58;;;;;;;1999.90;999.90;;;;;;;-1.88;61.39;99487.22;4977298;28;98842;-72
2021/12/28 08:22:26;;;;;;;1999.90;999.90;;;;;;;-1.87;61.39;99474.25;4984755;28;96676;-72
2021/12/28 08:24:54;;;;;;;1999.90;999.90;;;;;;;-1.87;62.11;99466.44;4984373;28;97120;-72
2021/12/28 08:27:23;;;;;;;1999.90;999.90;;;;;;;-1.82;61.04;99470.16;4985290;28;97147;-72
2021/12/28 08:29:50;;;;;;;1999.90;999.90;;;;;;;-1.78;61.25;99462.50;4984268;28;98756;-72
2021/12/28 08:32:20;;;;;;;1999.90;999.90;;;;;;;-1.78;61.32;99463.41;4986299;28;96957;-72
2021/12/28 08:34:47;;;;;;;1999.90;999.90;;;;;;;-1.77;61.14;99459.06;4985570;28;97324;-72
2021/12/28 08:37:18;;;;;;;1999.90;999.90;;;;;;;-1.78;61.82;99452.09;4985725;28;98832;-72
2021/12/28 08:39:45;;;;;;;1999.90;999.90;;;;;;;-1.78;61.51;99457.28;4965961;28;96996;-72
2021/12/28 08:42:13;;;;;;;1999.90;999.90;;;;;;;-1.78;62.26;99457.28;4979912;28;96893;-72
2021/12/28 08:44:41;;;;;;;1999.90;999.90;;;;;;;-1.80;61.98;99453.72;4980898;28;97723;-71
2021/12/28 08:47:09;;;;;;;1999.90;999.90;;;;;;;-1.79;62.14;99453.78;4978816;28;99561;-72
2021/12/28 08:49:38;;;;;;;1999.90;999.90;;;;;;;-1.76;62.34;99453.06;4981332;28;99051;-71
2021/12/28 08:52:06;;;;;;;1999.90;999.90;;;;;;;-1.74;62.40;99449.69;4998102;28;96825;-71
2021/12/28 08:54:34;;;;;;;1999.90;999.90;;;;;;;-1.71;62.19;99446.34;4977454;28;98693;-71
2021/12/28 08:57:02;;;;;;;1999.90;999.90;;;;;;;-1.66;61.77;99437.91;4977258;28;97756;-71
2021/12/28 08:59:30;;;;;;;1999.90;999.90;;;;;;;-1.62;61.62;99449.38;4983450;28;98836;-71
2021/12/28 09:01:58;;;;;;;1999.90;999.90;;;;;;;-1.59;62.08;99449.53;4977912;28;98547;-71
2021/12/28 09:04:25;;;;;;;1999.90;999.90;;;;;;;-1.58;62.30;99452.22;4976882;28;98212;-71
2021/12/28 09:06:55;;;;;;;1999.90;999.90;;;;;;;-1.57;61.85;99453.09;4979097;28;97866;-71
2021/12/28 09:09:22;;;;;;;1999.90;999.90;;;;;;;-1.53;61.97;99452.44;4977603;28;97660;-72
2021/12/28 09:11:50;;;;;;;1999.90;999.90;;;;;;;-1.51;61.57;99456.00;4977040;28;99261;-71
2021/12/28 09:14:18;;;;;;;1999.90;999.90;;;;;;;-1.52;61.78;99456.84;4978605;28;96810;-71
2021/12/28 09:16:46;;;;;;;1999.90;999.90;;;;;;;-1.49;61.32;99446.53;4966469;28;98735;-72
2021/12/28 09:19:14;;;;;;;1999.90;999.90;;;;;;;-1.46;62.06;99446.69;4986958;28;97788;-72
2021/12/28 09:21:42;;;;;;;1999.90;999.90;;;;;;;-1.46;61.71;99446.69;4985407;28;96705;-71
2021/12/28 09:24:11;;;;;;;1999.90;999.90;;;;;;;-1.46;61.82;99442.38;4981470;28;100204;-71
2021/12/28 09:27:00;;;;;;;1999.90;999.90;;;;;;;-1.49;61.83;99431.81;4975850;28;97724;-72
2021/12/28 09:29:29;;;;;;;1999.90;999.90;;;;;;;-1.52;62.25;99439.47;4977416;28;99311;-71
2021/12/28 09:31:58;;;;;;;1999.90;999.90;;;;;;;-1.51;62.10;99438.66;4982603;28;96973;-71
2021/12/28 09:34:27;;;;;;;1999.90;999.90;;;;;;;-1.45;61.63;99435.44;4960974;28;98652;-71
2021/12/28 09:36:58;;;;;;;1999.90;999.90;;;;;;;-1.42;61.61;99443.41;4976989;28;98799;-71
2021/12/28 09:39:28;;;;;;;1999.90;999.90;;;;;;;-1.40;61.90;99427.00;4979555;28;98279;-71
2021/12/28 09:41:59;;;;;;;1999.90;999.90;;;;;;;-1.37;61.76;99428.84;4963317;28;96794;-72
2021/12/28 09:44:28;;;;;;;1999.90;999.90;;;;;;;-1.35;61.83;99428.09;4995064;28;97027;-72
2021/12/28 09:46:56;;;;;;;1999.90;999.90;;;;;;;-1.32;61.42;99424.75;4979490;28;100698;-71
2021/12/28 09:49:25;;;;;;;1999.90;999.90;;;;;;;-1.28;61.82;99426.66;4992112;28;98892;-72
2021/12/28 09:51:53;;;;;;;1999.90;999.90;;;;;;;-1.29;61.63;99425.78;4978223;28;97496;-71
2021/12/28 09:54:23;;;;;;;1999.90;999.90;;;;;;;-1.27;61.58;99418.91;4979440;28;97891;-71
2021/12/28 09:56:55;;;;;;;1999.90;999.90;;;;;;;-1.27;61.66;99423.25;4977361;28;99003;-71
2021/12/28 09:59:23;;;;;;;1999.90;999.90;;;;;;;-1.23;61.54;99422.56;4976871;28;98446;-73
2021/12/28 10:01:51;;;;;;;1999.90;999.90;;;;;;;-1.24;61.49;99411.22;4979392;28;97612;-73
2021/12/28 10:04:20;;;;;;;1999.90;999.90;;;;;;;-1.21;61.53;99408.75;4976135;28;97323;-73
2021/12/28 10:06:48;;;;;;;1999.90;999.90;;;;;;;-1.18;61.42;99410.63;4981033;28;97985;-72
2021/12/28 10:09:18;;;;;;;1999.90;999.90;;;;;;;-1.16;61.64;99390.72;4996970;28;97563;-72
2021/12/28 10:11:50;;;;;;;1999.90;999.90;;;;;;;-1.14;61.53;99395.16;4984724;28;96756;-73
2021/12/28 10:14:21;;;;;;;1999.90;999.90;;;;;;;-1.10;61.37;99396.19;4982524;28;97281;-73
2021/12/28 10:16:52;;;;;;;1999.90;999.90;;;;;;;-1.07;61.82;99396.34;4985551;28;99239;-72
2021/12/28 10:19:36;;;;;;;1999.90;999.90;;;;;;;-1.06;61.25;99393.78;4983162;28;97569;-73
2021/12/28 10:22:28;;;;;;;1999.90;999.90;;;;;;;-1.02;61.45;99390.50;4983021;28;98132;-73
2021/12/28 10:24:57;;;;;;;1999.90;999.90;;;;;;;-1.01;61.78;99387.06;4979633;28;98429;-73
2021/12/28 10:27:27;;;;;;;1999.90;999.90;;;;;;;-1.01;61.39;99391.38;4985392;28;99803;-73
2021/12/28 10:30:05;;;;;;;1999.90;999.90;;;;;;;-1.01;61.53;99384.44;4984831;28;97662;-73
2021/12/28 10:32:34;;;;;;;1999.90;999.90;;;;;;;-0.98;61.34;99382.00;4981899;28;97238;-73
2021/12/28 10:35:05;;;;;;;1999.90;999.90;;;;;;;-0.98;61.46;99375.88;4982033;28;97520;-73
2021/12/28 10:37:36;;;;;;;1999.90;999.90;;;;;;;-0.97;61.34;99365.50;4984062;28;98595;-73
2021/12/28 10:40:07;;;;;;;1999.90;999.90;;;;;;;-0.94;61.22;99362.13;4965216;28;100681;-73
2021/12/28 10:42:43;;;;;;;1999.90;999.90;;;;;;;-0.94;61.38;99362.13;4983210;28;96894;-73
2021/12/28 10:45:15;;;;;;;1999.90;999.90;;;;;;;-0.92;61.45;99363.06;4980833;28;98169;-73
2021/12/28 10:47:43;;;;;;;1999.90;999.90;;;;;;;-0.91;61.55;99363.16;4982600;28;97942;-73
2021/12/28 10:50:23;;;;;;;1999.90;999.90;;;;;;;-0.89;61.88;99371.06;4983908;28;98539;-73
2021/12/28 10:52:59;;;;;;;1999.90;999.90;;;;;;;-0.86;61.20;99368.56;4979710;28;96857;-71
2021/12/28 10:55:28;;;;;;;1999.90;999.90;;;;;;;-0.84;61.40;99367.81;4981882;28;97169;-72
2021/12/28 10:57:56;;;;;;;1999.90;999.90;;;;;;;-0.82;61.44;99360.94;4988541;28;98076;-72
2021/12/28 11:00:30;;;;;;;1999.90;999.90;;;;;;;-0.81;61.55;99354.88;4985920;28;97978;-72
2021/12/28 11:03:17;;;;;;;1999.90;999.90;;;;;;;-0.81;61.59;99344.44;4983476;28;97188;-72
2021/12/28 11:05:46;;;;;;;1999.90;999.90;;;;;;;-0.75;61.39;99340.28;4983186;28;97127;-72